Time;durP1;ratioP1;P1;durP2;ratioP2;P2;SDS_P1;SDS_P2;PMS_P1;PMS_P2;Temp;Humidity;BMP_temperature;BMP_pressure;BME280_temperature;BME280_humidity;BME280_pressure;Samples;Min_cycle;Max_cycle;Signal;HPM_P1;HPM_P2
2023/10/02 00:01:52;;;;;;;9.30;8.30;;;19.40;99.90;;;;;;4963689;28;20787;-63
2023/10/02 00:04:24;;;;;;;11.70;8.73;;;19.30;99.90;;;;;;4958439;28;20463;-62
2023/10/02 00:07:05;;;;;;;10.87;8.67;;;19.30;99.90;;;;;;4975371;28;20431;-62
2023/10/02 00:09:41;;;;;;;11.57;9.43;;;19.20;99.90;;;;;;4976183;28;20434;-62
2023/10/02 00:12:14;;;;;;;10.53;9.20;;;19.20;99.90;;;;;;4975316;28;20423;-63
2023/10/02 00:14:41;;;;;;;9.77;8.60;;;19.10;99.90;;;;;;4976196;28;20411;-63
2023/10/02 00:17:14;;;;;;;11.33;9.63;;;19.00;99.90;;;;;;4976038;28;20806;-62
2023/10/02 00:19:45;;;;;;;9.87;8.20;;;19.10;99.90;;;;;;4975437;28;20800;-62
2023/10/02 00:25:07;;;;;;;10.37;9.27;;;18.90;99.90;;;;;;4975614;28;20454;-62
2023/10/02 00:27:34;;;;;;;10.67;9.20;;;18.90;99.90;;;;;;4975511;28;20475;-63
2023/10/02 00:30:01;;;;;;;11.73;8.80;;;18.90;99.90;;;;;;4968641;28;20440;-62
2023/10/02 00:32:29;;;;;;;13.30;9.30;;;18.90;99.90;;;;;;4975480;28;20416;-63
2023/10/02 00:34:58;;;;;;;11.60;9.30;;;18.80;99.90;;;;;;4975708;28;20407;-62
2023/10/02 00:37:43;;;;;;;11.50;8.80;;;18.80;99.90;;;;;;4975570;28;20430;-63
2023/10/02 00:40:22;;;;;;;10.87;8.90;;;18.80;99.90;;;;;;4975046;28;20424;-63
2023/10/02 00:42:53;;;;;;;11.37;9.43;;;18.80;99.90;;;;;;4975523;28;20401;-63
2023/10/02 00:45:19;;;;;;;11.80;9.37;;;18.70;99.90;;;;;;4975908;28;20803;-63
2023/10/02 00:47:45;;;;;;;14.27;9.00;;;18.70;99.90;;;;;;4975186;28;20494;-63
2023/10/02 00:50:18;;;;;;;11.10;9.00;;;18.70;99.90;;;;;;4974483;28;20514;-63
2023/10/02 00:52:55;;;;;;;10.83;8.57;;;18.70;99.90;;;;;;4967062;28;20408;-63
2023/10/02 00:55:24;;;;;;;11.37;9.30;;;18.70;99.90;;;;;;4973733;28;20905;-62
2023/10/02 00:57:52;;;;;;;10.83;9.03;;;18.60;99.90;;;;;;4974601;28;20435;-59
2023/10/02 01:00:30;;;;;;;12.00;9.20;;;18.60;99.90;;;;;;4974992;28;20446;-63
2023/10/02 01:02:58;;;;;;;12.23;8.87;;;18.60;99.90;;;;;;4956309;28;20912;-62
2023/10/02 01:08:24;;;;;;;9.30;8.20;;;18.70;99.90;;;;;;4974273;28;20966;-63
2023/10/02 01:10:56;;;;;;;11.47;8.83;;;18.60;99.90;;;;;;4954396;28;20484;-59
2023/10/02 01:13:32;;;;;;;10.27;9.20;;;18.60;99.90;;;;;;4973157;28;20468;-63
2023/10/02 01:16:08;;;;;;;13.23;9.20;;;18.60;99.90;;;;;;4974335;28;20455;-62
2023/10/02 01:18:38;;;;;;;10.43;9.27;;;18.60;99.90;;;;;;4974917;28;20443;-62
2023/10/02 01:21:11;;;;;;;11.63;9.00;;;18.60;99.90;;;;;;4973741;28;20931;-62
2023/10/02 01:24:07;;;;;;;11.57;9.10;;;18.50;99.90;;;;;;4974719;28;20893;-63
2023/10/02 01:26:37;;;;;;;12.13;9.50;;;18.50;99.90;;;;;;4973809;28;20428;-62
2023/10/02 01:29:06;;;;;;;11.23;9.27;;;18.50;99.90;;;;;;4974151;28;20434;-62
2023/10/02 01:31:35;;;;;;;13.43;9.17;;;18.40;99.90;;;;;;4975013;28;20423;-62
2023/10/02 01:34:04;;;;;;;12.57;8.60;;;18.40;99.90;;;;;;4973779;28;20423;-62
2023/10/02 01:36:32;;;;;;;10.03;8.93;;;18.40;99.90;;;;;;4974065;28;20434;-62
2023/10/02 01:39:10;;;;;;;10.00;9.00;;;18.30;99.90;;;;;;4974118;28;20784;-62
2023/10/02 01:41:41;;;;;;;10.57;9.20;;;18.30;99.90;;;;;;4974123;28;20415;-62
2023/10/02 01:44:11;;;;;;;11.97;9.70;;;18.30;99.90;;;;;;4972327;28;21021;-63
2023/10/02 01:46:59;;;;;;;12.53;9.33;;;18.30;99.90;;;;;;4974043;28;20519;-62
2023/10/02 01:49:25;;;;;;;12.53;9.80;;;18.30;99.90;;;;;;4957479;28;20407;-63
2023/10/02 01:52:01;;;;;;;9.57;8.57;;;18.30;99.90;;;;;;4974365;28;20424;-63
2023/10/02 01:54:29;;;;;;;13.50;10.00;;;18.30;99.90;;;;;;4970390;28;20502;-62
2023/10/02 01:56:56;;;;;;;14.20;9.47;;;18.30;99.90;;;;;;4973191;28;20430;-63
2023/10/02 01:59:24;;;;;;;12.57;9.07;;;18.30;99.90;;;;;;4973633;28;20427;-62
2023/10/02 02:01:54;;;;;;;10.93;9.30;;;18.30;99.90;;;;;;4974105;28;20423;-63
2023/10/02 02:04:23;;;;;;;14.03;9.43;;;18.30;99.90;;;;;;4974323;28;20502;-63
2023/10/02 02:06:51;;;;;;;10.17;8.87;;;18.30;99.90;;;;;;4973796;28;20432;-62
2023/10/02 02:09:24;;;;;;;12.90;8.37;;;18.30;99.90;;;;;;4972853;28;20791;-62
2023/10/02 02:12:07;;;;;;;12.70;9.00;;;18.30;99.90;;;;;;4973585;28;20447;-62
2023/10/02 02:14:52;;;;;;;9.17;8.27;;;18.30;99.90;;;;;;4973837;28;20511;-62
2023/10/02 02:17:22;;;;;;;11.50;8.10;;;18.30;99.90;;;;;;4955993;28;20466;-63
2023/10/02 02:19:48;;;;;;;11.27;8.97;;;18.20;99.90;;;;;;4965597;28;20520;-62
2023/10/02 02:22:26;;;;;;;13.30;8.70;;;18.20;99.90;;;;;;4953860;28;20729;-62
2023/10/02 02:24:59;;;;;;;10.60;8.67;;;18.20;99.90;;;;;;4954884;29;20456;-62
2023/10/02 02:27:25;;;;;;;10.00;8.80;;;18.20;99.90;;;;;;4965629;28;20471;-63
2023/10/02 02:29:56;;;;;;;11.37;9.00;;;18.10;99.90;;;;;;4972779;28;20959;-62
2023/10/02 02:35:09;;;;;;;13.40;9.70;;;18.10;99.90;;;;;;4973355;28;20408;-62
2023/10/02 02:37:35;;;;;;;11.57;9.73;;;18.10;99.90;;;;;;4973864;28;20510;-62
2023/10/02 02:42:50;;;;;;;12.83;9.00;;;18.10;99.90;;;;;;4973936;28;20400;-63
2023/10/02 02:45:28;;;;;;;10.37;8.73;;;18.10;99.90;;;;;;4955139;28;20694;-63
2023/10/02 02:48:05;;;;;;;10.80;8.73;;;18.10;99.90;;;;;;4973188;28;20415;-62
2023/10/02 02:50:35;;;;;;;10.30;8.17;;;18.10;99.90;;;;;;4973744;28;20404;-63
2023/10/02 02:56:14;;;;;;;9.80;8.10;;;18.00;99.90;;;;;;4973328;28;20419;-63
2023/10/02 02:58:44;;;;;;;10.70;8.17;;;18.00;99.90;;;;;;4973042;28;20443;-62
2023/10/02 03:01:22;;;;;;;13.20;9.67;;;18.00;99.90;;;;;;4973075;28;20776;-63
2023/10/02 03:03:59;;;;;;;11.23;8.60;;;18.00;99.90;;;;;;4973085;28;20494;-62
2023/10/02 03:06:24;;;;;;;9.70;8.70;;;18.00;99.90;;;;;;4973117;28;20423;-62
2023/10/02 03:08:54;;;;;;;11.57;8.40;;;18.00;99.90;;;;;;4973179;28;20929;-63
2023/10/02 03:11:22;;;;;;;9.87;8.87;;;17.90;99.90;;;;;;4973461;28;20183;-62
2023/10/02 03:13:49;;;;;;;13.20;10.00;;;17.90;99.90;;;;;;4973292;28;20438;-62
2023/10/02 03:16:19;;;;;;;14.33;9.33;;;17.90;99.90;;;;;;4972278;28;20428;-62
2023/10/02 03:18:48;;;;;;;11.30;9.17;;;18.00;99.90;;;;;;4973456;28;20823;-62
2023/10/02 03:21:22;;;;;;;10.90;8.77;;;17.90;99.90;;;;;;4972571;28;20434;-62
2023/10/02 03:23:53;;;;;;;11.57;8.60;;;17.90;99.90;;;;;;4973299;28;20806;-62
2023/10/02 03:26:27;;;;;;;12.30;9.50;;;17.90;99.90;;;;;;4972214;28;20441;-62
2023/10/02 03:29:04;;;;;;;13.40;9.60;;;17.90;99.90;;;;;;4973341;28;20499;-62
2023/10/02 03:31:57;;;;;;;12.90;9.50;;;17.90;99.90;;;;;;4955795;28;21013;-62
2023/10/02 03:34:27;;;;;;;9.93;8.93;;;17.90;99.90;;;;;;4971663;28;20526;-62
2023/10/02 03:36:59;;;;;;;11.07;9.30;;;17.90;99.90;;;;;;4957867;29;20823;-62
2023/10/02 03:42:14;;;;;;;10.83;9.73;;;17.80;99.90;;;;;;4976085;28;20416;-63
2023/10/02 03:44:43;;;;;;;13.93;10.40;;;17.90;99.90;;;;;;4976784;28;20455;-63
2023/10/02 03:47:12;;;;;;;14.13;10.60;;;17.80;99.90;;;;;;4945599;29;20429;-62
2023/10/02 03:49:44;;;;;;;12.03;10.73;;;17.80;99.90;;;;;;4970037;28;20939;-63
2023/10/02 03:52:16;;;;;;;11.60;10.40;;;17.80;99.90;;;;;;4975794;28;20416;-63
2023/10/02 03:54:46;;;;;;;11.73;10.57;;;17.80;99.90;;;;;;4976763;28;20451;-62
2023/10/02 04:00:12;;;;;;;13.10;10.83;;;17.90;99.90;;;;;;4974815;28;20423;-65
2023/10/02 04:02:37;;;;;;;14.27;10.57;;;17.90;99.90;;;;;;4976960;28;20411;-65
2023/10/02 04:05:04;;;;;;;13.50;10.33;;;17.80;99.90;;;;;;4973128;28;20467;-64
2023/10/02 04:07:30;;;;;;;11.67;9.93;;;17.80;99.90;;;;;;4974801;28;20275;-66
2023/10/02 04:09:57;;;;;;;11.73;10.47;;;17.80;99.90;;;;;;4976321;28;20439;-65
2023/10/02 04:12:22;;;;;;;12.30;10.07;;;17.80;99.90;;;;;;4973917;28;20871;-65
2023/10/02 04:14:48;;;;;;;11.27;10.10;;;17.80;99.90;;;;;;4959297;28;20519;-65
2023/10/02 04:17:21;;;;;;;11.17;9.97;;;17.80;99.90;;;;;;4976090;28;20637;-65
2023/10/02 04:19:52;;;;;;;13.63;10.67;;;17.80;99.90;;;;;;4965940;28;20578;-65
2023/10/02 04:22:25;;;;;;;12.33;9.57;;;17.80;99.90;;;;;;4960626;28;20413;-64
2023/10/02 04:25:03;;;;;;;15.50;10.50;;;17.80;99.90;;;;;;4969822;28;20551;-65
2023/10/02 04:32:39;;;;;;;13.13;10.30;;;17.80;99.90;;;;;;4975536;28;20419;-65
2023/10/02 04:35:40;;;;;;;12.90;10.23;;;17.80;99.90;;;;;;4971402;28;20431;-65
2023/10/02 04:37:58;;;;;;;12.93;10.93;;;17.70;99.90;;;;;;4975194;28;20486;-65
2023/10/02 04:40:37;;;;;;;12.13;10.90;;;17.70;99.90;;;;;;4974790;28;20781;-62
2023/10/02 04:45:48;;;;;;;15.20;9.80;;;17.70;99.90;;;;;;4974314;28;20459;-62
2023/10/02 04:48:16;;;;;;;13.53;10.53;;;17.70;99.90;;;;;;4971871;28;20918;-62
2023/10/02 04:50:47;;;;;;;12.43;9.80;;;17.70;99.90;;;;;;4975140;28;20459;-63
2023/10/02 04:55:43;;;;;;;12.23;10.30;;;17.70;99.90;;;;;;4974798;28;20950;-63
2023/10/02 04:58:14;;;;;;;12.70;9.63;;;17.70;99.90;;;;;;4967683;28;20439;-62
2023/10/02 05:03:49;;;;;;;12.10;10.80;;;17.70;99.90;;;;;;4973927;28;20470;-62
2023/10/02 05:06:39;;;;;;;13.00;10.80;;;17.70;99.90;;;;;;4958202;28;20928;-62
2023/10/02 05:11:52;;;;;;;11.50;9.57;;;17.70;99.90;;;;;;4974917;28;20423;-63
2023/10/02 05:14:26;;;;;;;13.13;10.60;;;17.70;99.90;;;;;;4973706;28;20518;-63
2023/10/02 05:17:16;;;;;;;16.00;12.23;;;17.70;99.90;;;;;;4974622;28;20440;-62
2023/10/02 05:22:31;;;;;;;16.40;12.20;;;17.60;99.90;;;;;;4973947;28;20424;-62
2023/10/02 05:24:58;;;;;;;18.03;12.93;;;17.60;99.90;;;;;;4974766;28;20539;-62
2023/10/02 05:27:43;;;;;;;14.17;11.47;;;17.60;99.90;;;;;;4974040;28;20467;-63
2023/10/02 05:30:13;;;;;;;16.87;13.23;;;17.60;99.90;;;;;;4972231;28;20927;-61
2023/10/02 05:32:40;;;;;;;15.80;11.60;;;17.60;99.90;;;;;;4974263;28;20485;-63
2023/10/02 05:37:39;;;;;;;15.03;11.37;;;17.70;99.90;;;;;;4954866;28;20431;-68
2023/10/02 05:43:47;;;;;;;14.90;12.30;;;17.80;99.90;;;;;;4957168;28;20428;-68
2023/10/02 05:45:47;;;;;;;13.30;11.67;;;17.80;99.90;;;;;;4955454;28;20476;-69
2023/10/02 05:48:27;;;;;;;16.97;13.53;;;17.80;99.90;;;;;;4956096;28;20769;-71
2023/10/02 05:51:09;;;;;;;17.67;12.70;;;17.80;99.90;;;;;;4974060;28;20416;-74
2023/10/02 05:53:37;;;;;;;14.03;11.53;;;17.70;99.90;;;;;;4974279;28;20411;-65
2023/10/02 05:58:36;;;;;;;19.67;13.37;;;17.70;99.90;;;;;;4973046;28;20436;-68
2023/10/02 06:01:04;;;;;;;15.13;12.47;;;17.70;99.90;;;;;;4973580;28;20431;-68
2023/10/02 06:03:35;;;;;;;14.50;12.70;;;17.70;99.90;;;;;;4973440;28;20427;-67
2023/10/02 06:06:15;;;;;;;14.67;13.17;;;17.70;99.90;;;;;;4973425;28;20519;-67
2023/10/02 06:08:48;;;;;;;16.00;12.33;;;17.60;99.90;;;;;;4968657;28;20415;-67
2023/10/02 06:11:25;;;;;;;14.60;12.33;;;17.60;99.90;;;;;;4973054;28;20847;-67
2023/10/02 06:13:56;;;;;;;18.27;13.73;;;17.60;99.90;;;;;;4956830;28;20536;-70
2023/10/02 06:16:26;;;;;;;14.23;12.43;;;17.60;99.90;;;;;;4972964;28;20427;-67
2023/10/02 06:19:01;;;;;;;13.50;11.67;;;17.60;99.90;;;;;;4972864;28;20431;-67
2023/10/02 06:21:31;;;;;;;14.23;12.30;;;17.60;99.90;;;;;;4969232;28;20427;-76
2023/10/02 06:23:58;;;;;;;18.10;12.93;;;17.60;99.90;;;;;;4972709;28;20468;-76
2023/10/02 06:26:29;;;;;;;15.23;11.60;;;17.60;99.90;;;;;;4973141;28;20424;-77
2023/10/02 06:29:13;;;;;;;12.20;11.00;;;17.60;99.90;;;;;;4972424;28;20447;-76
2023/10/02 06:31:41;;;;;;;15.27;11.70;;;17.60;99.90;;;;;;4956770;28;20456;-76
2023/10/02 06:34:11;;;;;;;16.37;12.57;;;17.60;99.90;;;;;;4973894;28;20510;-76
2023/10/02 06:37:02;;;;;;;13.90;11.27;;;17.60;99.90;;;;;;4972412;28;20474;-76
2023/10/02 06:39:35;;;;;;;17.73;11.87;;;17.70;99.90;;;;;;4973093;28;20505;-73
2023/10/02 06:42:04;;;;;;;17.10;12.70;;;17.60;99.90;;;;;;4974046;28;20404;-73
2023/10/02 06:44:41;;;;;;;15.77;13.10;;;17.70;99.90;;;;;;4971685;28;20724;-77
2023/10/02 06:47:13;;;;;;;17.53;12.60;;;17.70;99.90;;;;;;4970221;28;20497;-77
2023/10/02 06:49:41;;;;;;;17.37;13.77;;;17.70;99.90;;;;;;4973058;28;20467;-76
2023/10/02 06:52:15;;;;;;;15.50;12.70;;;17.80;99.90;;;;;;4968937;28;20420;-68
2023/10/02 06:54:45;;;;;;;14.33;12.83;;;17.80;99.90;;;;;;4964688;28;20541;-75
2023/10/02 06:57:13;;;;;;;15.63;13.10;;;17.90;99.90;;;;;;4964885;28;20518;-64
2023/10/02 06:59:51;;;;;;;17.00;11.70;;;17.90;99.90;;;;;;4954981;28;20890;-76
2023/10/02 07:02:27;;;;;;;17.37;12.70;;;17.90;99.90;;;;;;4968796;28;20424;-76
2023/10/02 07:04:57;;;;;;;18.33;12.93;;;18.00;99.90;;;;;;4965929;28;20856;-73
2023/10/02 07:07:26;;;;;;;17.97;13.73;;;18.10;99.90;;;;;;4971491;28;20420;-76
2023/10/02 07:10:07;;;;;;;15.13;13.40;;;18.10;99.90;;;;;;4972420;28;20826;-76
2023/10/02 07:12:40;;;;;;;15.70;12.77;;;18.20;99.90;;;;;;4950049;29;20838;-65
2023/10/02 07:15:10;;;;;;;17.93;14.57;;;18.20;99.90;;;;;;4956812;28;20442;-64
2023/10/02 07:17:47;;;;;;;18.37;14.03;;;18.30;99.90;;;;;;4971947;28;20429;-64
2023/10/02 07:20:20;;;;;;;15.03;12.83;;;18.30;99.90;;;;;;4963233;28;20558;-63
2023/10/02 07:22:51;;;;;;;15.20;12.43;;;18.40;99.90;;;;;;4957352;28;20416;-64
2023/10/02 07:25:20;;;;;;;14.67;12.63;;;18.40;99.90;;;;;;4970231;28;20524;-64
2023/10/02 07:27:48;;;;;;;14.43;12.70;;;18.50;99.90;;;;;;4972208;28;20463;-64
2023/10/02 07:30:24;;;;;;;15.70;12.50;;;18.60;99.90;;;;;;4957929;28;20435;-63
2023/10/02 07:33:02;;;;;;;16.03;11.47;;;18.60;99.90;;;;;;4971686;28;20423;-64
2023/10/02 07:35:28;;;;;;;13.10;11.47;;;18.70;99.90;;;;;;4969146;28;20489;-64
2023/10/02 07:38:00;;;;;;;15.73;12.10;;;18.70;99.90;;;;;;4966183;28;20931;-64
2023/10/02 07:43:18;;;;;;;15.00;11.00;;;18.80;99.90;;;;;;4970698;28;20863;-63
2023/10/02 07:45:45;;;;;;;18.73;12.10;;;18.90;99.90;;;;;;4971150;28;21016;-63
2023/10/02 07:48:12;;;;;;;16.43;10.83;;;19.00;99.90;;;;;;4968657;28;20430;-63
2023/10/02 07:50:39;;;;;;;13.37;10.47;;;19.00;99.90;;;;;;4966369;28;20426;-63
2023/10/02 07:53:06;;;;;;;14.03;10.70;;;19.10;99.90;;;;;;4971940;28;20766;-63
2023/10/02 07:55:43;;;;;;;460.97;377.23;;;19.10;99.90;;;;;;4973953;28;20526;-65
2023/10/02 07:58:13;;;;;;;54.13;41.40;;;19.20;99.90;;;;;;4968572;28;20420;-66
2023/10/02 08:00:41;;;;;;;18.33;14.33;;;19.30;99.90;;;;;;4975232;28;20551;-66
2023/10/02 08:05:56;;;;;;;14.50;11.20;;;19.50;99.90;;;;;;4976020;28;20451;-66
2023/10/02 08:08:33;;;;;;;14.27;11.47;;;19.60;99.90;;;;;;4969485;28;20419;-68
2023/10/02 08:11:02;;;;;;;12.60;10.97;;;19.70;99.90;;;;;;4972351;28;20451;-67
2023/10/02 08:13:35;;;;;;;13.30;10.80;;;19.80;99.90;;;;;;4969301;28;20436;-66
2023/10/02 08:16:14;;;;;;;12.13;10.00;;;19.90;99.90;;;;;;4969638;28;20808;-68
2023/10/02 08:19:10;;;;;;;37.17;29.37;;;20.00;99.90;;;;;;4967485;28;20499;-69
2023/10/02 08:21:55;;;;;;;95.93;79.87;;;20.00;99.90;;;;;;4939428;28;20884;-67
2023/10/02 08:24:21;;;;;;;29.37;24.40;;;20.10;99.90;;;;;;4968449;28;20820;-69
2023/10/02 08:26:47;;;;;;;51.07;41.07;;;20.20;99.90;;;;;;4939538;28;20428;-69
2023/10/02 08:29:15;;;;;;;51.00;38.70;;;20.40;99.90;;;;;;4967813;28;20185;-69
2023/10/02 08:31:43;;;;;;;19.03;15.30;;;20.60;99.90;;;;;;4967533;28;20441;-68
2023/10/02 08:34:19;;;;;;;15.07;10.90;;;20.90;99.90;;;;;;4957174;28;20440;-69
2023/10/02 08:36:49;;;;;;;13.90;10.17;;;20.80;99.90;;;;;;4964985;28;20404;-69
2023/10/02 08:39:21;;;;;;;17.60;14.03;;;20.90;99.90;;;;;;4964656;28;20444;-68
2023/10/02 08:41:50;;;;;;;14.83;10.90;;;21.00;99.90;;;;;;4964943;28;20408;-69
2023/10/02 08:44:17;;;;;;;12.13;9.40;;;21.10;99.90;;;;;;4965291;28;20546;-69
2023/10/02 08:46:43;;;;;;;13.87;10.33;;;21.10;99.90;;;;;;4966692;28;20492;-69
2023/10/02 08:49:10;;;;;;;13.73;11.50;;;21.10;99.90;;;;;;4967641;28;20417;-69
2023/10/02 08:51:38;;;;;;;17.13;13.13;;;21.30;99.90;;;;;;4961872;28;20177;-69
2023/10/02 08:54:05;;;;;;;23.10;17.40;;;21.50;99.90;;;;;;4964417;28;20437;-69
2023/10/02 08:56:43;;;;;;;18.03;13.00;;;21.60;99.90;;;;;;4962714;28;20758;-70
2023/10/02 08:59:26;;;;;;;13.47;10.10;;;21.70;99.90;;;;;;4966614;28;20790;-69
2023/10/02 09:02:14;;;;;;;18.17;16.13;;;21.70;99.90;;;;;;4954272;28;20427;-69
2023/10/02 09:04:57;;;;;;;12.13;10.10;;;21.80;99.90;;;;;;4970098;28;20565;-70
2023/10/02 09:08:00;;;;;;;16.57;13.30;;;21.90;99.90;;;;;;4968516;28;20843;-69
2023/10/02 09:10:26;;;;;;;11.97;10.87;;;22.00;99.90;;;;;;4963519;28;20454;-71
2023/10/02 09:13:19;;;;;;;12.67;9.50;;;22.00;99.90;;;;;;4967978;28;20876;-70
2023/10/02 09:15:47;;;;;;;46.13;35.70;;;22.10;99.90;;;;;;4968371;28;20446;-69
2023/10/02 09:18:34;;;;;;;16.33;12.20;;;22.10;99.90;;;;;;4965985;28;20415;-70
2023/10/02 09:21:21;;;;;;;12.80;10.40;;;22.10;99.90;;;;;;4955886;28;20421;-69
2023/10/02 09:23:53;;;;;;;13.50;10.37;;;22.20;99.90;;;;;;4966596;28;20504;-68
2023/10/02 09:26:23;;;;;;;12.57;10.30;;;22.40;99.90;;;;;;4968946;28;20514;-69
2023/10/02 09:29:00;;;;;;;15.57;10.77;;;22.50;99.90;;;;;;4966548;28;20558;-71
2023/10/02 09:31:30;;;;;;;12.43;10.17;;;22.70;99.90;;;;;;4963273;28;20420;-70
2023/10/02 09:33:56;;;;;;;13.00;11.80;;;23.00;99.90;;;;;;4966574;28;20405;-72
2023/10/02 09:36:35;;;;;;;12.57;10.97;;;23.30;99.90;;;;;;4963198;28;20413;-70
2023/10/02 09:42:06;;;;;;;14.37;12.00;;;23.80;99.90;;;;;;4965535;28;20753;-72
2023/10/02 09:44:53;;;;;;;14.97;12.77;;;24.00;99.90;;;;;;4963810;28;20452;-72
2023/10/02 09:47:20;;;;;;;13.50;10.30;;;24.20;99.90;;;;;;4965415;28;20400;-71
2023/10/02 09:50:10;;;;;;;12.00;10.13;;;24.50;99.90;;;;;;4963366;28;20421;-69
2023/10/02 09:52:58;;;;;;;12.63;10.30;;;24.80;99.90;;;;;;4955156;28;20774;-69
2023/10/02 09:55:42;;;;;;;12.60;10.80;;;25.00;99.90;;;;;;4965504;28;20499;-68
2023/10/02 09:58:35;;;;;;;15.80;11.70;;;25.30;99.90;;;;;;4965526;28;20428;-72
2023/10/02 10:03:52;;;;;;;13.50;11.97;;;25.60;99.90;;;;;;4963748;28;20979;-70
2023/10/02 10:06:19;;;;;;;13.60;11.50;;;25.90;99.90;;;;;;4964113;28;20844;-70
2023/10/02 10:09:50;;;;;;;14.30;11.37;;;26.10;99.70;;;;;;4955552;28;20428;-69
2023/10/02 10:11:45;;;;;;;14.60;12.67;;;26.30;97.90;;;;;;4961808;28;20454;-70
2023/10/02 10:14:39;;;;;;;15.27;12.60;;;26.60;97.80;;;;;;4965292;28;20415;-70
2023/10/02 10:17:14;;;;;;;13.63;11.90;;;26.80;95.90;;;;;;4965497;28;20223;-70
2023/10/02 10:22:56;;;;;;;12.97;11.37;;;27.00;96.20;;;;;;4954091;28;20431;-68
2023/10/02 10:28:08;;;;;;;12.67;11.20;;;27.40;94.70;;;;;;4964408;28;20570;-69
2023/10/02 10:30:39;;;;;;;13.40;11.30;;;27.50;93.10;;;;;;4952643;28;20634;-69
2023/10/02 10:35:35;;;;;;;13.20;11.30;;;27.50;94.10;;;;;;4962659;28;20417;-68
2023/10/02 10:38:07;;;;;;;23.33;20.40;;;27.50;93.80;;;;;;4955248;28;20909;-69
2023/10/02 10:40:50;;;;;;;17.07;14.83;;;27.40;93.30;;;;;;4950869;28;20490;-68
2023/10/02 10:43:21;;;;;;;14.60;13.10;;;27.20;93.80;;;;;;4954302;29;20750;-68
2023/10/02 10:45:51;;;;;;;13.27;10.80;;;27.20;93.80;;;;;;4936713;29;20819;-68
2023/10/02 10:48:22;;;;;;;15.20;12.20;;;27.20;93.80;;;;;;4954087;28;20400;-68
2023/10/02 10:50:59;;;;;;;15.07;12.90;;;27.30;93.20;;;;;;4973270;28;20709;-68
2023/10/02 10:53:29;;;;;;;17.00;14.60;;;27.30;93.50;;;;;;4973439;28;20486;-63
2023/10/02 10:56:16;;;;;;;20.53;16.63;;;27.50;93.70;;;;;;4973521;28;20408;-68
2023/10/02 10:58:47;;;;;;;11.30;9.90;;;27.50;92.90;;;;;;4972760;28;20423;-68
2023/10/02 11:01:20;;;;;;;15.07;11.43;;;27.60;92.80;;;;;;4973153;28;20426;-68
2023/10/02 11:03:54;;;;;;;16.30;14.70;;;27.80;92.80;;;;;;4972755;28;20403;-68
2023/10/02 11:06:23;;;;;;;12.93;10.57;;;27.80;92.00;;;;;;4973624;28;20415;-68
2023/10/02 11:09:11;;;;;;;16.00;13.80;;;27.70;93.40;;;;;;4973278;28;20732;-66
2023/10/02 11:11:50;;;;;;;13.67;9.87;;;27.70;92.10;;;;;;4973067;28;20416;-68
2023/10/02 11:14:34;;;;;;;12.43;10.10;;;27.80;92.60;;;;;;4973733;28;20400;-68
2023/10/02 11:17:04;;;;;;;17.63;14.00;;;28.00;91.80;;;;;;4953624;28;20464;-68
2023/10/02 11:22:31;;;;;;;13.70;10.10;;;28.20;91.50;;;;;;4963388;28;20741;-66
2023/10/02 11:24:55;;;;;;;13.70;10.80;;;28.10;91.00;;;;;;4962746;28;20464;-68
2023/10/02 11:27:24;;;;;;;12.83;10.83;;;28.20;90.20;;;;;;4964826;28;20503;-67
2023/10/02 11:30:01;;;;;;;12.13;9.23;;;28.20;89.70;;;;;;4963358;28;20193;-66
2023/10/02 11:32:53;;;;;;;11.80;8.60;;;27.90;89.50;;;;;;4962010;28;20412;-66
2023/10/02 11:35:20;;;;;;;10.50;8.27;;;27.90;90.30;;;;;;4964380;28;20971;-69
2023/10/02 11:37:49;;;;;;;14.67;9.27;;;27.90;87.50;;;;;;4963684;28;20412;-68
2023/10/02 11:40:16;;;;;;;12.57;9.60;;;27.80;90.60;;;;;;4961705;28;20425;-68
2023/10/02 11:42:42;;;;;;;12.57;9.87;;;27.80;89.10;;;;;;4962448;28;20428;-68
2023/10/02 11:45:10;;;;;;;10.50;9.40;;;27.90;90.20;;;;;;4954508;28;20492;-68
2023/10/02 11:47:37;;;;;;;11.30;9.67;;;28.00;90.20;;;;;;4950168;28;20182;-68
2023/10/02 11:50:04;;;;;;;9.60;8.40;;;27.90;88.80;;;;;;4962010;28;20427;-68
2023/10/02 11:52:31;;;;;;;10.80;9.00;;;27.80;90.20;;;;;;4961950;28;20413;-63
2023/10/02 11:54:57;;;;;;;10.60;9.50;;;27.80;90.00;;;;;;4964666;28;20441;-68
2023/10/02 11:57:24;;;;;;;11.27;8.90;;;27.80;89.00;;;;;;4958558;28;20443;-68
2023/10/02 11:59:50;;;;;;;9.93;8.73;;;27.80;90.40;;;;;;4966958;28;20522;-68
2023/10/02 12:02:19;;;;;;;119.33;92.10;;;27.80;90.20;;;;;;4971964;28;20281;-67
2023/10/02 12:04:46;;;;;;;101.67;90.77;;;27.50;90.60;;;;;;4970882;28;20220;-67
2023/10/02 12:07:16;;;;;;;11.83;9.23;;;27.30;90.90;;;;;;4969919;28;20408;-68
2023/10/02 12:09:49;;;;;;;11.50;7.87;;;27.30;90.20;;;;;;4954995;28;20417;-68
2023/10/02 12:12:15;;;;;;;9.20;7.90;;;27.30;90.80;;;;;;4971149;28;20463;-68
2023/10/02 12:14:42;;;;;;;10.27;9.17;;;27.10;90.90;;;;;;4954638;29;20809;-68
2023/10/02 12:17:11;;;;;;;10.67;8.87;;;27.10;91.00;;;;;;4966096;28;20185;-68
2023/10/02 12:19:39;;;;;;;9.80;8.10;;;26.90;91.90;;;;;;4955283;28;20413;-67
2023/10/02 12:22:06;;;;;;;11.20;7.50;;;26.80;92.20;;;;;;4970847;28;20416;-68
2023/10/02 12:24:34;;;;;;;10.37;7.77;;;26.80;92.40;;;;;;4941995;28;20472;-67
2023/10/02 12:27:00;;;;;;;11.00;9.37;;;26.60;91.10;;;;;;4976254;28;20459;-68
2023/10/02 12:29:26;;;;;;;10.03;8.40;;;26.50;91.90;;;;;;4975460;28;20491;-68
2023/10/02 12:31:53;;;;;;;10.90;7.93;;;26.30;91.90;;;;;;4975330;28;20443;-67
2023/10/02 12:34:22;;;;;;;10.67;8.60;;;26.30;91.60;;;;;;4975902;28;20426;-67
2023/10/02 12:36:49;;;;;;;8.90;7.57;;;26.30;92.00;;;;;;4972351;28;20408;-67
2023/10/02 12:39:16;;;;;;;8.97;7.50;;;26.30;92.00;;;;;;4967821;28;20424;-68
2023/10/02 12:41:42;;;;;;;10.73;8.13;;;26.20;92.30;;;;;;4964287;28;20496;-67
2023/10/02 12:44:08;;;;;;;9.83;7.33;;;26.30;91.60;;;;;;4965853;28;20456;-67
2023/10/02 12:46:50;;;;;;;8.43;7.50;;;26.30;92.00;;;;;;4966958;28;20600;-67
2023/10/02 12:49:25;;;;;;;8.17;6.63;;;26.40;92.60;;;;;;4967236;28;20503;-67
2023/10/02 12:51:52;;;;;;;12.07;7.97;;;26.30;92.50;;;;;;4954366;29;20652;-68
2023/10/02 12:54:19;;;;;;;9.70;7.50;;;26.30;93.90;;;;;;4966589;28;20460;-68
2023/10/02 12:56:46;;;;;;;7.60;6.67;;;26.30;93.20;;;;;;4963461;28;20424;-68
2023/10/02 12:59:11;;;;;;;10.20;7.33;;;26.20;92.70;;;;;;4966132;28;20413;-67
2023/10/02 13:01:38;;;;;;;12.13;7.67;;;26.10;93.20;;;;;;4961012;28;20817;-67
2023/10/02 13:04:05;;;;;;;9.07;7.53;;;26.10;93.10;;;;;;4964976;28;20230;-68
2023/10/02 13:06:30;;;;;;;9.67;7.40;;;26.00;93.00;;;;;;4952663;28;20428;-69
2023/10/02 13:09:15;;;;;;;12.40;8.40;;;26.10;93.80;;;;;;4968605;28;20438;-69
2023/10/02 13:11:44;;;;;;;12.40;11.03;;;26.20;93.40;;;;;;4969615;28;20222;-63
2023/10/02 13:14:12;;;;;;;187.37;169.90;;;26.20;93.00;;;;;;4955696;29;20480;-64
2023/10/02 13:16:42;;;;;;;16.60;14.77;;;26.30;93.10;;;;;;4937714;29;20420;-64
2023/10/02 13:19:12;;;;;;;9.33;7.97;;;26.40;92.30;;;;;;4955610;29;20468;-64
2023/10/02 13:21:40;;;;;;;11.13;9.23;;;26.50;93.60;;;;;;4972923;28;20423;-64
2023/10/02 13:24:06;;;;;;;8.80;7.40;;;26.60;94.10;;;;;;4974828;28;20463;-65
2023/10/02 13:26:36;;;;;;;9.53;7.67;;;26.60;92.40;;;;;;4974550;28;20884;-64
2023/10/02 13:29:02;;;;;;;8.13;7.00;;;26.50;92.10;;;;;;4957706;28;20523;-63
2023/10/02 13:31:28;;;;;;;8.77;7.33;;;26.50;92.00;;;;;;4974303;28;20869;-65
2023/10/02 13:33:54;;;;;;;8.03;6.60;;;26.50;92.30;;;;;;4973624;28;20412;-65
2023/10/02 13:36:22;;;;;;;7.80;7.00;;;26.50;92.30;;;;;;4973977;28;20263;-65
2023/10/02 13:38:56;;;;;;;8.87;7.40;;;26.40;92.40;;;;;;4973257;28;20408;-64
2023/10/02 13:41:23;;;;;;;8.50;7.40;;;26.50;93.10;;;;;;4974358;28;20414;-65
2023/10/02 13:43:52;;;;;;;8.60;7.70;;;26.30;92.60;;;;;;4968745;28;20511;-64
2023/10/02 13:46:20;;;;;;;7.60;6.57;;;26.40;92.40;;;;;;4971553;28;20780;-64
2023/10/02 13:48:54;;;;;;;7.83;6.37;;;26.40;91.80;;;;;;4955839;28;20436;-64
2023/10/02 13:51:21;;;;;;;8.07;6.73;;;26.40;91.90;;;;;;4973593;28;20515;-63
2023/10/02 13:53:48;;;;;;;8.83;7.10;;;26.40;92.80;;;;;;4970274;28;20420;-63
2023/10/02 13:56:20;;;;;;;7.80;6.47;;;26.30;91.90;;;;;;4957028;28;20444;-65
2023/10/02 13:58:48;;;;;;;8.67;7.87;;;26.20;91.40;;;;;;4972622;28;20520;-64
2023/10/02 14:01:15;;;;;;;9.93;6.77;;;26.30;91.70;;;;;;4973302;28;20430;-65
2023/10/02 14:03:45;;;;;;;10.83;7.60;;;26.20;92.10;;;;;;4972582;28;20424;-63
2023/10/02 14:06:12;;;;;;;9.57;8.03;;;26.20;92.90;;;;;;4956812;28;20498;-65
2023/10/02 14:08:41;;;;;;;7.80;6.90;;;26.20;92.60;;;;;;4973124;28;20422;-62